LFRH

Lorient South Brittany (Bretagne Sud) Airport

Airport
ICAO code
LFRH
IATA Code
LRT
Summary
ICAO Region
EUR
ICAO Territory
Location

Ploemeur, Bretagne

Serving
Morbihan
Elevation
160 ft
Coordinates
47° 45' 38" N , 3° 26' 24" W
Metar
Observation
LFRH 030200Z AUTO 01005KT 9999 FEW027 03/02 Q1017 NOSIG
Station
Lann Bihoue
Date/Time
2022-12-03 02:00:00
Wind direction
10°
Wind speed
05 kts
Lowest cloud amount
few clouds
Temperature
3°C
Dew point
2°C
Humidity
93%
QNH
1017 hPa
Weather condition
n/a

Runways

Designator Length Width Surface Rops
2/20 1670 45 CON Yes/Yes
7/25 2403 45 CON Yes/Yes

Airport map

Aerial View

Airport accidents

SKYbrary Partners:

Safety knowledge contributed by: